Time;durP1;ratioP1;P1;durP2;ratioP2;P2;SDS_P1;SDS_P2;PMS_P1;PMS_P2;Temp;Humidity;BMP_temperature;BMP_pressure;BME280_temperature;BME280_humidity;BME280_pressure;Samples;Min_cycle;Max_cycle;Signal;HPM_P1;HPM_P2
2022/01/17 00:01:41;;;;;;;25.13;13.32;;;;;;;9.47;57.02;102632.22;5066802;28;20586;-75
2022/01/17 00:04:10;;;;;;;27.08;13.23;;;;;;;9.46;56.90;102625.00;5086604;28;20058;-75
2022/01/17 00:06:38;;;;;;;26.05;12.23;;;;;;;9.45;56.99;102629.53;5086921;28;20048;-75
2022/01/17 00:09:05;;;;;;;26.85;12.23;;;;;;;9.45;56.87;102634.97;5088801;28;20082;-76
2022/01/17 00:11:31;;;;;;;23.02;12.77;;;;;;;9.44;57.03;102645.84;5082553;28;20076;-75
2022/01/17 00:13:58;;;;;;;23.85;12.23;;;;;;;9.44;56.99;102649.47;5088069;28;20047;-76
2022/01/17 00:16:34;;;;;;;23.95;12.20;;;;;;;9.44;56.92;102662.13;5082791;28;20131;-75
2022/01/17 00:19:18;;;;;;;24.48;12.30;;;;;;;9.44;57.14;102659.41;5088422;28;20147;-76
2022/01/17 00:21:44;;;;;;;21.70;11.02;;;;;;;9.43;57.23;102666.66;5078373;28;20060;-75
2022/01/17 00:24:11;;;;;;;23.95;12.02;;;;;;;9.46;57.09;102671.09;5056682;28;20462;-76
2022/01/17 00:26:37;;;;;;;25.00;11.20;;;;;;;9.46;57.47;102680.13;5094164;28;20455;-75
2022/01/17 00:29:04;;;;;;;24.98;12.27;;;;;;;9.47;56.94;102678.31;5071883;28;20086;-75
2022/01/17 00:31:31;;;;;;;24.58;11.55;;;;;;;9.48;57.13;102677.34;5090006;28;20052;-75
2022/01/17 00:34:00;;;;;;;22.30;12.10;;;;;;;9.49;57.26;102673.69;5089182;28;20083;-75
2022/01/17 00:36:26;;;;;;;19.30;11.38;;;;;;;9.47;57.29;102670.16;5070252;28;20135;-75
2022/01/17 00:38:53;;;;;;;23.40;11.85;;;;;;;9.49;56.77;102681.81;5077953;28;20123;-76
2022/01/17 00:41:19;;;;;;;26.48;12.75;;;;;;;9.49;57.33;102682.72;5071399;28;20131;-75
2022/01/17 00:43:46;;;;;;;21.63;11.55;;;;;;;9.49;56.97;102688.13;5082354;28;20055;-75
2022/01/17 00:46:13;;;;;;;23.90;11.93;;;;;;;9.50;57.01;102692.63;5082232;28;20052;-75
2022/01/17 00:48:40;;;;;;;22.10;11.20;;;;;;;9.50;57.08;102687.19;5086504;28;20127;-75
2022/01/17 00:51:07;;;;;;;23.17;11.95;;;;;;;9.51;57.24;102685.38;5084108;28;20049;-74
2022/01/17 00:53:36;;;;;;;23.42;11.02;;;;;;;9.50;57.18;102676.34;5086100;28;20135;-74
2022/01/17 00:56:06;;;;;;;24.67;11.07;;;;;;;9.53;57.14;102680.81;5087465;28;20131;-74
2022/01/17 00:58:34;;;;;;;23.88;12.23;;;;;;;9.52;57.19;102673.59;5067755;28;20424;-75
2022/01/17 01:01:01;;;;;;;23.08;10.80;;;;;;;9.52;57.12;102673.59;5082094;28;20052;-74
2022/01/17 01:03:28;;;;;;;21.40;11.13;;;;;;;9.54;57.11;102666.31;5090210;28;20050;-74
2022/01/17 01:05:54;;;;;;;22.98;11.00;;;;;;;9.52;57.06;102663.66;5082530;28;21021;-74
2022/01/17 01:08:23;;;;;;;20.40;10.98;;;;;;;9.53;56.96;102678.97;5085385;28;20661;-74
2022/01/17 01:10:50;;;;;;;21.08;10.85;;;;;;;9.54;57.11;102679.88;5070849;28;20467;-75
2022/01/17 01:13:22;;;;;;;20.50;10.05;;;;;;;9.53;56.88;102687.09;5076021;28;20098;-74
2022/01/17 01:29:06;;;;;;;22.25;11.15;;;;;;;9.50;56.88;102697.16;5092326;28;20072;-75
2022/01/17 01:31:50;;;;;;;26.10;11.90;;;;;;;9.52;57.06;102689.88;5092629;28;20131;-74
2022/01/17 01:34:19;;;;;;;22.27;11.63;;;;;;;9.52;56.84;102681.72;5091555;28;20091;-74
2022/01/17 01:36:48;;;;;;;24.88;12.45;;;;;;;9.52;57.07;102676.31;5072611;28;20048;-75
2022/01/17 01:39:22;;;;;;;25.95;11.93;;;;;;;9.51;56.90;102678.13;5091821;28;20495;-75
2022/01/17 01:41:49;;;;;;;25.05;12.88;;;;;;;9.54;56.96;102674.44;5089001;28;20050;-74
2022/01/17 01:44:20;;;;;;;27.13;13.20;;;;;;;9.53;57.30;102667.25;5091661;28;20066;-74
2022/01/17 01:46:47;;;;;;;24.13;13.65;;;;;;;9.51;57.05;102674.53;5088492;28;20185;-75
2022/01/17 01:49:16;;;;;;;22.63;12.18;;;;;;;9.52;56.91;102685.34;5081726;28;20113;-74
2022/01/17 01:51:44;;;;;;;29.30;13.93;;;;;;;9.50;57.22;102681.78;5089998;28;20139;-75
2022/01/17 01:54:11;;;;;;;26.35;12.75;;;;;;;9.48;57.07;102689.06;5069524;28;20127;-74
2022/01/17 01:56:40;;;;;;;26.23;12.20;;;;;;;9.50;57.20;102698.03;5090952;28;20058;-74
2022/01/17 01:59:06;;;;;;;26.85;11.73;;;;;;;9.50;57.11;102705.28;5090263;28;20131;-75
2022/01/17 02:01:33;;;;;;;27.52;13.18;;;;;;;9.52;57.13;102728.72;5092070;28;20058;-75
2022/01/17 02:04:01;;;;;;;29.98;12.80;;;;;;;9.50;57.26;102727.88;5091512;28;20075;-74
2022/01/17 02:06:27;;;;;;;24.98;12.57;;;;;;;9.52;57.47;102725.13;5073717;28;20076;-75
2022/01/17 02:08:54;;;;;;;26.35;14.02;;;;;;;9.53;57.26;102713.34;5090312;28;20048;-74
2022/01/17 02:11:20;;;;;;;24.02;12.43;;;;;;;9.53;57.48;102697.97;5073374;28;20068;-74
2022/01/17 02:13:47;;;;;;;26.88;12.88;;;;;;;9.54;57.27;102688.88;5091004;28;20441;-74
2022/01/17 02:16:16;;;;;;;29.15;12.85;;;;;;;9.55;57.29;102689.78;5081411;28;20083;-75
2022/01/17 02:18:44;;;;;;;25.58;12.27;;;;;;;9.57;57.20;102687.00;5091984;28;20043;-75
2022/01/17 02:23:43;;;;;;;25.90;13.18;;;;;;;9.58;57.18;102686.06;5082195;28;20087;-74
2022/01/17 02:26:10;;;;;;;27.92;13.23;;;;;;;9.58;57.36;102697.78;5096338;28;20229;-75
2022/01/17 02:28:37;;;;;;;26.55;13.38;;;;;;;9.58;57.39;102686.06;5084936;28;20123;-74
2022/01/17 02:31:05;;;;;;;27.80;13.32;;;;;;;9.58;57.26;102688.75;5072953;28;20135;-75
2022/01/17 02:33:33;;;;;;;25.02;12.88;;;;;;;9.58;57.34;102688.75;5077214;28;20079;-74
2022/01/17 02:36:01;;;;;;;27.65;13.50;;;;;;;9.58;57.48;102686.06;5072081;28;20298;-74
2022/01/17 02:38:28;;;;;;;28.25;13.77;;;;;;;9.59;57.27;102682.41;5093024;28;20153;-74
2022/01/17 02:40:55;;;;;;;24.40;12.48;;;;;;;9.58;57.42;102676.09;5094098;28;20130;-74
2022/01/17 02:43:23;;;;;;;25.70;12.52;;;;;;;9.59;57.46;102675.16;5094971;28;20076;-74
2022/01/17 02:48:22;;;;;;;28.17;14.30;;;;;;;9.61;57.35;102684.13;5089261;28;20040;-74
2022/01/17 02:50:48;;;;;;;25.25;12.80;;;;;;;9.61;57.49;102710.38;5072222;28;20135;-74
2022/01/17 02:53:16;;;;;;;26.80;11.88;;;;;;;9.62;57.35;102709.44;5087431;28;20131;-74
2022/01/17 02:55:51;;;;;;;27.25;13.43;;;;;;;9.64;57.54;102697.56;5088010;28;20538;-74
2022/01/17 02:58:20;;;;;;;24.42;12.80;;;;;;;9.63;57.51;102697.66;5084854;28;20151;-74
2022/01/17 03:00:48;;;;;;;30.95;13.45;;;;;;;9.65;57.48;102687.63;5088096;28;20419;-74
2022/01/17 03:03:20;;;;;;;28.85;14.23;;;;;;;9.67;57.61;102677.63;5093980;28;20054;-75
2022/01/17 03:05:48;;;;;;;30.10;14.88;;;;;;;9.66;57.52;102675.84;5089553;28;20101;-74
2022/01/17 03:08:18;;;;;;;36.00;16.42;;;;;;;9.69;57.51;102676.63;5086171;28;20529;-74
2022/01/17 03:10:47;;;;;;;31.08;15.27;;;;;;;9.69;57.68;102681.16;5079829;28;20076;-74
2022/01/17 03:13:20;;;;;;;30.27;15.38;;;;;;;9.69;57.58;102673.91;5089903;28;20044;-74
2022/01/17 03:15:54;;;;;;;27.90;13.48;;;;;;;9.67;57.33;102664.94;5083178;28;20542;-74
2022/01/17 03:18:22;;;;;;;29.55;13.73;;;;;;;9.69;57.40;102656.75;5087653;28;20044;-74
2022/01/17 03:20:49;;;;;;;30.30;14.85;;;;;;;9.70;57.60;102656.72;5087269;28;20047;-74
2022/01/17 03:23:15;;;;;;;33.63;15.02;;;;;;;9.69;57.66;102670.31;5087181;28;20080;-75
2022/01/17 03:25:42;;;;;;;27.63;13.90;;;;;;;9.70;57.58;102682.94;5088046;28;20143;-74
2022/01/17 03:28:09;;;;;;;32.33;15.27;;;;;;;9.69;57.67;102705.56;5088789;28;20048;-74
2022/01/17 03:30:36;;;;;;;30.50;13.90;;;;;;;9.70;57.60;102704.63;5088127;28;20131;-74
2022/01/17 03:33:04;;;;;;;28.13;14.10;;;;;;;9.70;57.71;102683.84;5082250;28;20052;-74
2022/01/17 03:35:31;;;;;;;28.45;14.38;;;;;;;9.70;57.61;102685.66;5087623;28;20087;-75
2022/01/17 03:37:58;;;;;;;35.03;15.80;;;;;;;9.73;57.64;102699.97;5079903;28;20135;-74
2022/01/17 03:40:25;;;;;;;30.80;15.23;;;;;;;9.73;57.63;102681.00;5087529;28;20061;-74
2022/01/17 03:42:52;;;;;;;27.13;14.38;;;;;;;9.75;57.65;102683.66;5089979;28;20143;-75
2022/01/17 03:45:18;;;;;;;30.35;15.35;;;;;;;9.75;57.53;102689.09;5086726;28;20131;-74
2022/01/17 03:47:50;;;;;;;30.25;16.35;;;;;;;9.76;57.69;102691.75;5078386;28;20094;-75
2022/01/17 03:50:19;;;;;;;31.92;14.85;;;;;;;9.76;57.70;102708.03;5089642;28;20075;-74
2022/01/17 03:52:47;;;;;;;27.42;13.32;;;;;;;9.76;57.63;102718.00;5072287;28;20054;-74
2022/01/17 03:55:17;;;;;;;30.27;14.48;;;;;;;9.78;57.86;102698.03;5087365;28;20665;-74
2022/01/17 03:57:44;;;;;;;28.65;14.18;;;;;;;9.78;57.67;102705.28;5090522;28;20094;-74
2022/01/17 04:00:20;;;;;;;27.27;14.15;;;;;;;9.81;57.96;102714.16;5085115;28;20059;-74
2022/01/17 04:02:47;;;;;;;;;;;;;;;9.60;58.36;102711.31;5087161;28;20087;-74
2022/01/17 04:05:14;;;;;;;29.17;13.32;;;;;;;9.77;57.73;102701.66;5070451;28;19928;-74
2022/01/17 04:07:41;;;;;;;27.77;14.77;;;;;;;9.81;57.59;102705.13;5090364;28;20108;-74
2022/01/17 04:10:08;;;;;;;30.23;14.80;;;;;;;9.83;57.50;102703.28;5089205;28;20094;-74
2022/01/17 04:12:34;;;;;;;26.85;13.13;;;;;;;9.83;57.55;102709.59;5090026;28;20044;-74
2022/01/17 04:15:01;;;;;;;29.38;15.13;;;;;;;9.84;57.54;102714.06;5080460;28;20071;-75
2022/01/17 04:17:29;;;;;;;30.60;15.43;;;;;;;9.84;57.56;102705.06;5082349;28;20116;-75
2022/01/17 04:20:05;;;;;;;29.45;14.63;;;;;;;9.85;57.59;102712.25;5084167;28;20078;-74
2022/01/17 04:22:35;;;;;;;27.48;13.63;;;;;;;9.85;57.53;102713.13;5090348;28;20150;-74
2022/01/17 04:25:04;;;;;;;28.50;13.68;;;;;;;9.86;57.60;102716.75;5088178;28;20130;-74
2022/01/17 04:27:31;;;;;;;25.38;14.23;;;;;;;9.85;57.45;102713.13;5088875;28;20048;-75
2022/01/17 04:29:58;;;;;;;26.08;12.95;;;;;;;9.86;57.36;102728.47;5074234;28;20056;-74
2022/01/17 04:32:25;;;;;;;26.90;14.40;;;;;;;9.86;57.42;102714.91;5090076;28;20076;-74
2022/01/17 04:34:51;;;;;;;27.42;13.98;;;;;;;9.87;57.25;102724.84;5090320;28;20050;-74
2022/01/17 04:37:18;;;;;;;28.48;14.07;;;;;;;9.88;57.71;102729.28;5071831;28;20127;-75
2022/01/17 04:39:44;;;;;;;31.73;15.10;;;;;;;9.88;57.50;102723.00;5081206;28;20056;-75
2022/01/17 04:42:12;;;;;;;27.10;14.40;;;;;;;9.88;57.22;102723.00;5089353;28;20051;-75
2022/01/17 04:47:25;;;;;;;28.00;13.40;;;;;;;9.88;57.60;102733.88;5077257;28;20040;-75
2022/01/17 04:49:52;;;;;;;26.85;13.20;;;;;;;9.88;57.32;102729.28;5089011;28;20110;-75
2022/01/17 04:52:19;;;;;;;28.88;15.02;;;;;;;9.91;57.46;102728.31;5093992;28;20126;-74
2022/01/17 04:54:52;;;;;;;27.23;15.23;;;;;;;9.89;57.22;102731.06;5090247;28;20453;-75
2022/01/17 04:57:19;;;;;;;;;;;;;;;9.68;57.63;102734.53;5091152;28;20574;-74
2022/01/17 04:59:45;;;;;;;27.58;13.98;;;;;;;9.83;57.17;102734.00;5090052;28;20298;-75
2022/01/17 05:02:12;;;;;;;25.95;13.35;;;;;;;9.86;57.16;102733.91;5096842;28;20044;-75
2022/01/17 05:04:39;;;;;;;25.50;12.98;;;;;;;9.87;57.27;102729.38;5098672;28;20060;-74
2022/01/17 05:07:06;;;;;;;28.80;14.00;;;;;;;9.88;57.21;102731.16;5088295;28;20476;-74
2022/01/17 05:09:32;;;;;;;26.27;13.35;;;;;;;9.89;57.33;102735.59;5092227;28;20147;-75
2022/01/17 05:12:00;;;;;;;27.98;14.27;;;;;;;9.89;57.15;102732.91;5074375;28;20058;-74
2022/01/17 05:14:27;;;;;;;24.52;13.23;;;;;;;9.88;57.30;102723.00;5085836;28;20131;-75
2022/01/17 05:17:02;;;;;;;28.88;13.85;;;;;;;9.88;57.09;102728.44;5088956;28;20130;-74
2022/01/17 05:22:13;;;;;;;26.27;14.13;;;;;;;9.87;57.44;102749.25;5092113;28;20131;-75
2022/01/17 05:24:41;;;;;;;26.73;13.20;;;;;;;9.87;57.07;102745.66;5082371;28;20052;-75
2022/01/17 05:27:07;;;;;;;25.90;13.32;;;;;;;9.86;57.24;102742.03;5090426;28;20487;-75
2022/01/17 05:29:34;;;;;;;25.65;14.02;;;;;;;9.86;57.04;102747.47;5080891;28;20048;-75
2022/01/17 05:32:01;;;;;;;28.02;14.52;;;;;;;9.87;57.07;102757.38;5090351;28;20134;-75
2022/01/17 05:34:28;;;;;;;26.13;13.18;;;;;;;9.85;57.10;102761.97;5091037;28;20134;-75
2022/01/17 05:36:55;;;;;;;23.58;12.77;;;;;;;9.84;57.19;102760.19;5087040;28;20048;-75
2022/01/17 05:39:21;;;;;;;27.25;13.48;;;;;;;9.84;57.14;102768.34;5091583;28;20139;-74
2022/01/17 05:41:48;;;;;;;27.55;14.27;;;;;;;9.84;57.16;102767.44;5066703;28;20502;-74
2022/01/17 05:44:14;;;;;;;27.67;12.85;;;;;;;9.82;57.16;102759.34;5091594;28;20123;-74
2022/01/17 05:46:41;;;;;;;23.92;12.25;;;;;;;9.83;57.31;102754.81;5089989;28;20511;-76
2022/01/17 05:49:07;;;;;;;23.67;12.48;;;;;;;9.82;57.13;102767.50;5091421;28;20050;-75
2022/01/17 05:51:34;;;;;;;24.90;12.68;;;;;;;9.82;57.13;102764.78;5091932;28;20082;-75
2022/01/17 05:54:01;;;;;;;27.90;13.77;;;;;;;9.85;57.25;102758.38;5091454;28;20080;-75
2022/01/17 05:56:27;;;;;;;25.77;12.77;;;;;;;9.85;57.15;102750.22;5084486;28;20159;-75
2022/01/17 05:58:54;;;;;;;26.15;12.90;;;;;;;9.84;57.18;102738.50;5092792;28;20139;-74
2022/01/17 06:01:20;;;;;;;24.85;12.55;;;;;;;9.84;57.01;102743.91;5089258;28;20132;-74
2022/01/17 06:03:47;;;;;;;23.27;12.02;;;;;;;9.85;57.11;102742.97;5075014;28;20558;-74
2022/01/17 06:06:13;;;;;;;22.75;11.65;;;;;;;9.85;57.28;102736.66;5085935;28;20044;-75
2022/01/17 06:08:42;;;;;;;21.88;11.63;;;;;;;9.86;57.21;102746.59;5065610;28;20040;-75
2022/01/17 06:11:09;;;;;;;21.50;11.70;;;;;;;9.87;57.01;102745.66;5083790;28;20418;-75
2022/01/17 06:13:35;;;;;;;24.17;12.50;;;;;;;9.87;57.18;102749.25;5083634;28;20127;-75
2022/01/17 06:16:09;;;;;;;22.13;12.05;;;;;;;9.89;57.23;102751.88;5077018;28;20049;-75
2022/01/17 06:18:36;;;;;;;25.35;12.77;;;;;;;9.85;57.35;102753.84;5092106;28;20073;-75
2022/01/17 06:21:02;;;;;;;24.77;12.73;;;;;;;9.87;57.06;102767.34;5070289;28;20131;-75
2022/01/17 06:23:29;;;;;;;21.40;11.60;;;;;;;9.86;57.07;102761.03;5086765;28;20131;-75
2022/01/17 06:25:55;;;;;;;21.98;10.90;;;;;;;9.86;57.18;102754.72;5089123;28;20548;-75
2022/01/17 06:28:22;;;;;;;20.00;11.38;;;;;;;9.86;56.94;102769.19;5082900;28;20115;-75
2022/01/17 06:30:50;;;;;;;21.67;11.02;;;;;;;9.86;57.10;102769.19;5082522;28;20107;-75
2022/01/17 06:33:16;;;;;;;22.08;11.35;;;;;;;9.86;57.01;102768.28;5087181;28;20052;-75
2022/01/17 06:35:43;;;;;;;22.55;11.43;;;;;;;9.85;57.17;102761.97;5068382;28;20056;-75
2022/01/17 06:38:10;;;;;;;21.50;10.70;;;;;;;9.85;56.98;102756.53;5089554;28;20067;-75
2022/01/17 06:40:36;;;;;;;20.58;11.15;;;;;;;9.86;57.02;102769.19;5087992;28;20146;-75
2022/01/17 06:43:08;;;;;;;22.80;11.82;;;;;;;9.87;57.05;102759.22;5084343;28;20040;-75
2022/01/17 06:45:35;;;;;;;21.63;11.10;;;;;;;9.87;57.19;102761.94;5084543;28;20513;-75
2022/01/17 06:48:05;;;;;;;20.27;11.20;;;;;;;9.88;57.15;102755.56;5076459;28;20056;-75
2022/01/17 06:50:33;;;;;;;19.52;10.88;;;;;;;9.89;57.10;102757.31;5072393;28;20799;-75
2022/01/17 06:53:00;;;;;;;22.80;11.55;;;;;;;9.90;56.83;102745.53;5080730;28;20123;-75
2022/01/17 06:55:26;;;;;;;21.48;10.95;;;;;;;9.89;57.15;102741.03;5089087;28;20527;-75
2022/01/17 06:57:53;;;;;;;20.27;10.80;;;;;;;9.90;56.89;102746.41;5090151;28;20127;-75
2022/01/17 07:00:19;;;;;;;21.15;10.52;;;;;;;9.91;57.02;102755.44;5089612;28;20060;-75
2022/01/17 07:02:52;;;;;;;19.80;10.88;;;;;;;9.90;57.09;102765.41;5073296;28;20147;-76
2022/01/17 07:05:18;;;;;;;20.10;11.27;;;;;;;9.91;56.90;102779.88;5089181;28;20044;-77
2022/01/17 07:07:45;;;;;;;21.13;10.82;;;;;;;9.90;56.94;102776.25;5073364;28;20166;-76
2022/01/17 07:10:11;;;;;;;20.23;10.57;;;;;;;9.92;56.88;102781.63;5089944;28;20507;-76
2022/01/17 07:12:38;;;;;;;21.98;10.95;;;;;;;9.94;56.77;102804.19;5071752;28;20117;-76
2022/01/17 07:15:07;;;;;;;20.77;10.98;;;;;;;9.94;56.64;102815.03;5084721;28;20051;-76
2022/01/17 07:17:34;;;;;;;18.20;9.13;;;;;;;9.91;56.75;102794.31;5090585;28;20070;-76
2022/01/17 07:20:03;;;;;;;18.02;9.30;;;;;;;9.93;56.64;102784.31;5089927;28;20125;-76
2022/01/17 07:22:31;;;;;;;18.42;9.50;;;;;;;9.91;57.01;102764.47;5090774;28;20044;-76
2022/01/17 07:24:58;;;;;;;22.45;11.57;;;;;;;9.91;56.85;102761.75;5089162;28;20088;-77
2022/01/17 07:27:25;;;;;;;21.58;11.25;;;;;;;9.91;56.83;102758.16;5098578;28;20068;-77
2022/01/17 07:29:52;;;;;;;23.40;11.95;;;;;;;9.92;56.75;102746.38;5085608;28;20052;-76
2022/01/17 07:32:18;;;;;;;22.65;11.75;;;;;;;9.90;56.73;102737.38;5073595;28;20129;-76
2022/01/17 07:34:45;;;;;;;20.63;10.85;;;;;;;9.89;56.65;102739.22;5078469;28;20052;-76
2022/01/17 07:37:12;;;;;;;19.60;10.45;;;;;;;9.88;56.82;102745.56;5090183;28;20052;-77
2022/01/17 07:39:38;;;;;;;19.65;10.38;;;;;;;9.89;56.96;102749.19;5084027;28;20136;-76
2022/01/17 07:42:05;;;;;;;20.30;10.70;;;;;;;9.90;56.64;102754.56;5096192;28;20123;-77
2022/01/17 07:44:34;;;;;;;20.40;10.48;;;;;;;9.89;56.83;102746.47;5088185;28;20087;-76
2022/01/17 07:47:02;;;;;;;20.13;10.48;;;;;;;9.90;56.80;102753.66;5071883;28;20075;-76
2022/01/17 07:49:29;;;;;;;19.02;11.05;;;;;;;9.88;56.82;102755.56;5089965;28;20048;-76
2022/01/17 07:52:04;;;;;;;18.67;10.45;;;;;;;9.90;56.97;102759.97;5092485;28;20139;-77
2022/01/17 07:54:33;;;;;;;20.25;10.77;;;;;;;9.89;56.88;102752.78;5081752;28;20594;-77
2022/01/17 07:57:01;;;;;;;21.63;11.27;;;;;;;9.89;56.96;102755.50;5089601;28;21513;-77
2022/01/17 07:59:28;;;;;;;22.02;11.95;;;;;;;9.89;56.85;102757.31;5090056;28;20122;-77
2022/01/17 08:01:55;;;;;;;24.65;12.35;;;;;;;9.89;56.73;102769.06;5072701;28;20111;-77
2022/01/17 08:04:22;;;;;;;21.20;11.05;;;;;;;9.90;56.92;102772.66;5082633;28;20052;-76
2022/01/17 08:06:51;;;;;;;20.88;10.48;;;;;;;9.91;56.88;102783.47;5085781;28;20148;-77
2022/01/17 08:09:21;;;;;;;23.52;11.63;;;;;;;9.93;56.87;102787.03;5088409;28;20109;-76
2022/01/17 08:12:06;;;;;;;19.83;10.52;;;;;;;9.90;56.87;102806.09;5090416;28;20402;-77
2022/01/17 08:14:33;;;;;;;22.97;11.57;;;;;;;9.88;56.85;102818.81;5083322;28;20056;-76
2022/01/17 08:16:59;;;;;;;23.05;11.27;;;;;;;9.90;57.12;102816.97;5085841;28;20426;-77
2022/01/17 08:19:26;;;;;;;23.58;12.48;;;;;;;9.90;57.08;102811.53;5089800;28;20044;-76
2022/01/17 08:21:59;;;;;;;24.02;12.70;;;;;;;9.93;56.85;102815.97;5090302;28;20068;-77
2022/01/17 08:24:26;;;;;;;23.90;11.85;;;;;;;9.91;56.81;102818.75;5072173;28;20055;-75
2022/01/17 08:26:52;;;;;;;22.85;12.32;;;;;;;9.91;56.87;102817.84;5090615;28;20086;-75
2022/01/17 08:29:19;;;;;;;21.75;11.93;;;;;;;9.92;57.11;102822.34;5090470;28;20056;-75
2022/01/17 08:31:47;;;;;;;26.85;12.13;;;;;;;9.92;56.89;102823.22;5073461;28;20068;-74
2022/01/17 08:34:15;;;;;;;25.38;12.27;;;;;;;9.93;56.94;102824.13;5088449;28;20055;-74
2022/01/17 08:36:42;;;;;;;25.08;13.32;;;;;;;9.93;57.11;102833.16;5070659;28;20105;-74
2022/01/17 08:39:10;;;;;;;21.13;12.43;;;;;;;9.93;56.99;102818.69;5072856;28;20146;-75
2022/01/17 08:41:42;;;;;;;23.25;12.20;;;;;;;9.94;56.94;102806.91;5080220;28;20127;-74
2022/01/17 08:44:12;;;;;;;24.17;13.00;;;;;;;9.96;56.60;102823.13;5087915;28;20053;-74
2022/01/17 08:46:41;;;;;;;23.50;12.48;;;;;;;9.95;56.80;102818.66;5088104;28;20044;-74
2022/01/17 08:49:08;;;;;;;23.17;12.18;;;;;;;9.94;57.06;102817.75;5092805;28;20044;-75
2022/01/17 08:51:34;;;;;;;22.95;12.57;;;;;;;9.93;57.24;102819.59;5092800;28;20190;-75
2022/01/17 08:54:01;;;;;;;22.92;12.70;;;;;;;9.97;57.09;102824.88;5090385;28;20046;-75
2022/01/17 08:56:30;;;;;;;23.80;13.15;;;;;;;9.97;57.26;102827.59;5093124;28;20139;-74
2022/01/17 08:58:58;;;;;;;22.13;12.68;;;;;;;9.99;56.95;102820.31;5073730;28;20040;-75
2022/01/17 09:01:25;;;;;;;24.42;13.73;;;;;;;10.02;57.00;102820.22;5102360;28;20135;-74
2022/01/17 09:03:52;;;;;;;23.98;13.93;;;;;;;10.00;57.04;102820.25;5075332;28;20055;-74
2022/01/17 09:06:23;;;;;;;23.30;13.32;;;;;;;10.03;57.06;102805.72;5091848;28;20052;-75
2022/01/17 09:08:50;;;;;;;23.08;12.70;;;;;;;10.04;56.99;102788.50;5084095;28;20049;-74
2022/01/17 09:11:17;;;;;;;23.63;12.80;;;;;;;10.04;57.07;102786.66;5092123;28;20047;-74
2022/01/17 09:13:43;;;;;;;22.70;11.70;;;;;;;10.06;57.06;102789.31;5093552;28;20444;-75
2022/01/17 09:16:10;;;;;;;22.73;13.48;;;;;;;10.08;57.41;102801.00;5081177;28;20129;-74
2022/01/17 09:18:37;;;;;;;24.13;14.02;;;;;;;10.09;57.27;102816.34;5084747;28;20040;-74
2022/01/17 09:21:04;;;;;;;25.08;14.18;;;;;;;10.10;57.23;102832.59;5091258;28;20151;-74
2022/01/17 09:23:31;;;;;;;23.15;13.40;;;;;;;10.10;57.37;102816.31;5073559;28;20126;-74
2022/01/17 09:25:58;;;;;;;26.00;14.40;;;;;;;10.15;57.28;102822.44;5071459;28;20467;-74
2022/01/17 09:28:24;;;;;;;26.40;14.35;;;;;;;10.16;57.14;102839.63;5089038;28;20097;-74
2022/01/17 09:30:51;;;;;;;21.42;12.90;;;;;;;10.18;57.23;102840.50;5081590;28;20131;-74
2022/01/17 09:33:18;;;;;;;24.80;13.40;;;;;;;10.18;57.12;102844.13;5091582;28;20051;-74
2022/01/17 09:35:45;;;;;;;23.80;13.43;;;;;;;10.21;57.37;102852.13;5085957;28;20117;-75
2022/01/17 09:38:12;;;;;;;22.88;13.00;;;;;;;10.24;57.13;102868.34;5075203;28;20052;-74
2022/01/17 09:40:39;;;;;;;23.10;12.90;;;;;;;10.25;56.95;102870.09;5091775;28;20127;-74
2022/01/17 09:43:26;;;;;;;24.92;13.40;;;;;;;10.25;57.28;102889.13;5078143;28;20579;-74
2022/01/17 09:45:53;;;;;;;24.58;13.35;;;;;;;10.26;57.20;102893.59;5085959;28;21760;-75
2022/01/17 09:48:22;;;;;;;27.83;13.65;;;;;;;10.28;57.07;102889.03;5092966;28;20079;-74
2022/01/17 09:51:04;;;;;;;24.05;12.65;;;;;;;10.29;57.02;102898.06;5089331;28;20563;-74
2022/01/17 09:53:38;;;;;;;27.37;14.00;;;;;;;10.28;57.14;102880.88;5093261;28;20083;-74
2022/01/17 09:56:07;;;;;;;26.15;14.60;;;;;;;10.31;57.00;102893.44;5091678;28;20290;-74
2022/01/17 09:58:37;;;;;;;25.10;14.45;;;;;;;10.32;57.14;102889.78;5093616;28;20472;-74
2022/01/17 10:01:04;;;;;;;26.90;13.73;;;;;;;10.33;57.29;102869.84;5085272;28;20086;-74
2022/01/17 10:03:32;;;;;;;22.33;12.93;;;;;;;10.34;57.32;102884.31;5091169;28;20044;-74
2022/01/17 10:05:59;;;;;;;25.48;14.57;;;;;;;10.34;57.62;102873.47;5080914;28;20136;-74
2022/01/17 10:08:27;;;;;;;24.80;13.20;;;;;;;10.37;57.26;102857.97;5092371;28;20052;-74
2022/01/17 10:10:59;;;;;;;25.63;12.73;;;;;;;10.40;57.30;102868.69;5081468;28;20076;-74
2022/01/17 10:13:34;;;;;;;27.50;14.82;;;;;;;10.40;57.40;102885.00;5077375;28;20048;-74
2022/01/17 10:16:03;;;;;;;25.48;13.82;;;;;;;10.42;57.22;102882.22;5081470;28;20135;-74
2022/01/17 10:18:36;;;;;;;25.67;13.98;;;;;;;10.45;57.13;102884.84;5079375;28;20078;-74
2022/01/17 10:21:12;;;;;;;25.00;14.32;;;;;;;10.42;57.28;102899.41;5082197;28;20526;-74
2022/01/17 10:36:53;;;;;;;23.27;13.43;;;;;;;10.51;57.29;102909.06;5081362;28;20106;-73
2022/01/17 10:39:19;;;;;;;21.05;13.40;;;;;;;10.52;57.50;102908.16;5084165;28;20085;-73
2022/01/17 10:41:46;;;;;;;19.48;12.40;;;;;;;10.54;57.32;102911.69;5089689;28;20068;-73
2022/01/17 10:44:35;;;;;;;24.02;13.02;;;;;;;10.57;57.42;102915.19;5087592;28;20670;-74
2022/01/17 10:47:20;;;;;;;22.33;13.05;;;;;;;10.59;57.43;102898.84;5067993;28;20044;-73
2022/01/17 10:49:53;;;;;;;21.08;12.98;;;;;;;10.61;57.48;102888.81;5082839;28;20121;-73
2022/01/17 10:52:38;;;;;;;24.00;13.38;;;;;;;10.60;57.46;102882.50;5096038;28;20114;-73
2022/01/17 10:55:24;;;;;;;23.58;12.82;;;;;;;10.61;57.23;102886.09;5081025;28;20043;-74
2022/01/17 10:57:56;;;;;;;21.33;12.15;;;;;;;10.62;57.28;102896.03;5090041;28;20078;-75
2022/01/17 11:00:26;;;;;;;22.40;14.20;;;;;;;10.60;57.36;102906.94;5084870;28;20082;-75
2022/01/17 11:02:56;;;;;;;20.17;12.65;;;;;;;10.61;57.37;102903.28;5093172;28;20056;-76
2022/01/17 11:05:27;;;;;;;20.42;12.07;;;;;;;10.63;57.25;102909.53;5089556;28;20039;-75
2022/01/17 11:07:58;;;;;;;20.00;12.18;;;;;;;10.63;57.58;102911.34;5085291;28;20051;-75
2022/01/17 11:10:27;;;;;;;21.10;11.95;;;;;;;10.64;57.59;102903.16;5089073;28;20083;-75
2022/01/17 11:12:57;;;;;;;22.48;12.32;;;;;;;10.65;57.37;102906.78;5070758;28;20052;-75
2022/01/17 11:15:25;;;;;;;20.92;13.40;;;;;;;10.65;57.55;102917.63;5083305;28;20098;-75
2022/01/17 11:17:55;;;;;;;23.45;13.18;;;;;;;10.65;57.46;102912.19;5090235;28;20052;-75
2022/01/17 11:20:26;;;;;;;21.25;11.77;;;;;;;10.67;57.70;102910.34;5107271;28;20078;-75
2022/01/17 11:22:58;;;;;;;23.65;12.90;;;;;;;10.69;57.95;102913.88;5086729;28;20138;-75
2022/01/17 11:25:32;;;;;;;21.23;12.02;;;;;;;10.67;57.54;102905.78;5072133;28;20052;-75
2022/01/17 11:28:01;;;;;;;18.05;10.90;;;;;;;10.70;57.63;102904.81;5080796;28;20105;-74
2022/01/17 11:30:29;;;;;;;20.60;11.85;;;;;;;10.71;57.62;102897.53;5078964;28;20071;-77
2022/01/17 11:33:00;;;;;;;23.83;12.73;;;;;;;10.72;57.34;102892.03;5083955;28;20072;-76
2022/01/17 11:35:27;;;;;;;20.25;11.95;;;;;;;10.70;57.61;102891.22;5085237;28;20051;-76
2022/01/17 11:37:56;;;;;;;20.17;12.30;;;;;;;10.73;57.45;102898.34;5085252;28;20048;-77
2022/01/17 11:40:32;;;;;;;21.02;12.02;;;;;;;10.74;57.50;102894.69;5087672;28;20134;-77
2022/01/17 11:43:00;;;;;;;19.05;11.77;;;;;;;10.72;57.52;102902.91;5091879;28;20060;-77
2022/01/17 11:45:35;;;;;;;20.10;11.75;;;;;;;10.75;57.82;102920.94;5089221;28;20392;-77
2022/01/17 11:48:05;;;;;;;19.45;11.07;;;;;;;10.73;57.31;102922.81;5066454;28;20048;-78
2022/01/17 11:50:35;;;;;;;19.52;11.68;;;;;;;10.70;57.56;102920.22;5083006;28;20616;-77
2022/01/17 11:53:07;;;;;;;15.68;10.55;;;;;;;10.73;57.55;102912.81;5091815;28;20479;-77
2022/01/17 11:55:40;;;;;;;19.60;10.85;;;;;;;10.69;57.84;102922.03;5089575;28;20052;-76
2022/01/17 11:58:27;;;;;;;;;;;;;;;10.49;58.28;102921.81;5072846;28;20056;-78
2022/01/17 12:00:56;;;;;;;16.73;9.13;;;;;;;10.66;57.84;102922.13;5088632;28;20298;-76